createdAt,value
2017-04-23T00:02:15.476Z,6.75
2017-04-23T00:04:59.072Z,6.75
2017-04-23T00:07:38.040Z,6.75
2017-04-23T00:10:17.582Z,6.74
2017-04-23T00:12:51.927Z,6.73
2017-04-23T00:15:31.171Z,6.71
2017-04-23T00:18:10.167Z,6.7
2017-04-23T00:20:45.183Z,6.69
2017-04-23T00:23:23.822Z,6.68
2017-04-23T00:26:05.034Z,6.67
2017-04-23T00:28:46.819Z,6.67
2017-04-23T00:31:23.123Z,6.67
2017-04-23T00:34:03.012Z,6.66
2017-04-23T00:36:44.289Z,6.66
2017-04-23T00:39:25.990Z,6.65
2017-04-23T00:42:07.971Z,6.64
2017-04-23T00:44:46.360Z,6.64
2017-04-23T00:47:21.714Z,6.63
2017-04-23T00:50:01.104Z,6.63
2017-04-23T00:52:37.205Z,6.62
2017-04-23T00:55:11.695Z,6.61
2017-04-23T00:57:52.370Z,6.61
2017-04-23T01:00:32.721Z,6.61
2017-04-23T01:03:13.605Z,6.6
2017-04-23T01:05:51.854Z,6.6
2017-04-23T01:08:26.573Z,6.6
2017-04-23T01:11:06.172Z,6.59
2017-04-23T01:13:48.397Z,6.59
2017-04-23T01:16:32.273Z,6.58
2017-04-23T01:19:13.463Z,6.58
2017-04-23T01:21:52.395Z,6.58
2017-04-23T01:24:29.111Z,6.57
2017-04-23T01:27:06.182Z,6.57
2017-04-23T01:29:43.798Z,6.56
2017-04-23T01:32:14.776Z,6.55
2017-04-23T01:34:56.599Z,6.54
2017-04-23T01:37:35.763Z,6.53
2017-04-23T01:40:14.051Z,6.53
2017-04-23T01:42:53.582Z,6.52
2017-04-23T01:45:34.186Z,6.52
2017-04-23T01:48:15.939Z,6.52
2017-04-23T01:50:52.969Z,6.53
2017-04-23T01:53:32.681Z,6.53
2017-04-23T01:56:09.957Z,6.53
2017-04-23T01:58:47.597Z,6.52
2017-04-23T02:01:25.272Z,6.51
2017-04-23T02:03:59.172Z,6.51
2017-04-23T02:06:39.793Z,6.5
2017-04-23T02:09:18.113Z,6.49
2017-04-23T02:11:59.419Z,6.5
2017-04-23T02:14:36.214Z,6.5
2017-04-23T02:17:08.006Z,6.5
2017-04-23T02:19:46.804Z,6.48
2017-04-23T02:22:16.277Z,6.47
2017-04-23T02:24:56.449Z,6.47
2017-04-23T02:27:33.356Z,6.48
2017-04-23T02:30:15.318Z,6.49
2017-04-23T02:32:52.144Z,6.49
2017-04-23T02:35:31.696Z,6.49
2017-04-23T02:38:14.211Z,6.5
2017-04-23T02:40:56.833Z,6.52
2017-04-23T02:43:37.809Z,6.53
2017-04-23T02:46:20.739Z,6.53
2017-04-23T02:48:58.635Z,6.53
2017-04-23T02:51:28.817Z,6.54
2017-04-23T02:54:04.526Z,6.54
2017-04-23T02:56:42.996Z,6.54
2017-04-23T02:59:16.862Z,6.54
2017-04-23T03:01:56.557Z,6.52
2017-04-23T03:04:34.999Z,6.51
2017-04-23T03:07:09.156Z,6.48
2017-04-23T03:09:45.256Z,6.47
2017-04-23T03:12:18.722Z,6.46
2017-04-23T03:14:58.687Z,6.46
2017-04-23T03:17:35.990Z,6.47
2017-04-23T03:20:14.044Z,6.47
2017-04-23T03:22:51.018Z,6.48
2017-04-23T03:25:32.034Z,6.48
2017-04-23T03:28:13.095Z,6.48
2017-04-23T03:30:48.008Z,6.46
2017-04-23T03:33:19.299Z,6.45
2017-04-23T03:35:57.099Z,6.43
2017-04-23T03:38:38.283Z,6.4
2017-04-23T03:41:11.323Z,6.36
2017-04-23T03:43:44.252Z,6.35
2017-04-23T03:46:14.452Z,6.34
2017-04-23T03:48:51.430Z,6.33
2017-04-23T03:51:26.873Z,6.34
2017-04-23T03:53:59.837Z,6.33
2017-04-23T03:56:24.383Z,6.32
2017-04-23T03:58:57.393Z,6.31
2017-04-23T04:01:36.266Z,6.29
2017-04-23T04:04:07.621Z,6.26
2017-04-23T04:06:46.303Z,6.24
2017-04-23T04:09:23.638Z,6.22
2017-04-23T04:11:55.273Z,6.23
2017-04-23T04:14:29.734Z,6.24
2017-04-23T04:17:05.623Z,6.25
2017-04-23T04:19:39.802Z,6.27
2017-04-23T04:22:14.623Z,6.28
2017-04-23T04:24:51.277Z,6.29
2017-04-23T04:27:25.213Z,6.3
2017-04-23T04:30:03.550Z,6.31
2017-04-23T04:32:34.493Z,6.32
2017-04-23T04:35:11.885Z,6.34
2017-04-23T04:37:43.332Z,6.37
2017-04-23T04:40:16.472Z,6.41
2017-04-23T04:42:55.909Z,6.44
2017-04-23T04:45:34.359Z,6.51
2017-04-23T04:48:14.765Z,6.54
2017-04-23T04:50:55.151Z,6.57
2017-04-23T04:53:29.054Z,6.65
2017-04-23T04:56:11.841Z,6.75
2017-04-23T04:58:46.398Z,6.84
2017-04-23T05:01:29.711Z,6.94
2017-04-23T05:04:11.562Z,7
2017-04-23T05:06:50.564Z,7.1
2017-04-23T05:09:25.502Z,7.16
2017-04-23T05:12:06.724Z,7.21
2017-04-23T05:14:43.836Z,7.24
2017-04-23T05:17:23.194Z,7.25
2017-04-23T05:19:55.083Z,7.28
2017-04-23T05:22:31.461Z,7.33
2017-04-23T05:25:05.249Z,7.41
2017-04-23T05:27:37.105Z,7.49
2017-04-23T05:30:06.096Z,7.54
2017-04-23T05:32:41.309Z,7.61
2017-04-23T05:35:18.735Z,7.74
2017-04-23T05:37:53.574Z,7.87
2017-04-23T05:40:24.679Z,7.98
2017-04-23T05:43:02.989Z,8.03
2017-04-23T05:45:37.963Z,8.09
2017-04-23T05:48:11.008Z,8.15
2017-04-23T05:50:46.044Z,8.23
2017-04-23T05:53:21.282Z,8.3
2017-04-23T05:55:51.183Z,8.37
2017-04-23T05:58:22.045Z,8.45
2017-04-23T06:00:47.216Z,8.54
2017-04-23T06:03:18.979Z,8.61
2017-04-23T06:05:38.557Z,8.71
2017-04-23T06:07:51.715Z,8.82
2017-04-23T06:09:58.968Z,8.92
2017-04-23T06:12:11.508Z,9.02
2017-04-23T06:14:25.406Z,9.08
2017-04-23T06:16:39.327Z,9.2
2017-04-23T06:18:51.490Z,9.29
2017-04-23T06:21:05.914Z,9.38
2017-04-23T06:23:18.241Z,9.48
2017-04-23T06:25:30.429Z,9.58
2017-04-23T06:27:45.504Z,9.7
2017-04-23T06:29:57.812Z,9.82
2017-04-23T06:32:10.340Z,9.89
2017-04-23T06:34:22.629Z,9.95
2017-04-23T06:36:34.873Z,10.06
2017-04-23T06:38:48.989Z,10.19
2017-04-23T06:41:07.857Z,10.33
2017-04-23T06:43:20.109Z,10.48
2017-04-23T06:45:30.687Z,10.68
2017-04-23T06:47:43.141Z,10.88
2017-04-23T06:49:55.856Z,10.97
2017-04-23T06:52:08.188Z,10.92
2017-04-23T06:54:20.552Z,11
2017-04-23T06:56:32.794Z,11.08
2017-04-23T06:58:45.096Z,11.17
2017-04-23T07:00:57.300Z,11.27
2017-04-23T07:03:09.542Z,11.39
2017-04-23T07:05:21.798Z,11.66
2017-04-23T07:07:34.157Z,12.03
2017-04-23T07:09:46.508Z,12.2
2017-04-23T07:11:58.798Z,11.8
2017-04-23T07:14:11.022Z,11.21
2017-04-23T07:16:23.425Z,11.01
2017-04-23T07:18:35.847Z,11.18
2017-04-23T07:20:48.281Z,11.72
2017-04-23T07:23:00.891Z,12.21
2017-04-23T07:25:13.333Z,12.1
2017-04-23T07:27:25.534Z,11.89
2017-04-23T07:29:37.859Z,11.91
2017-04-23T07:31:50.166Z,12.12
2017-04-23T07:34:06.754Z,11.74
2017-04-23T07:36:19.303Z,11.07
2017-04-23T07:38:32.262Z,10.68
2017-04-23T07:40:44.693Z,10.58
2017-04-23T07:42:57.687Z,10.53
2017-04-23T07:45:09.991Z,10.79
2017-04-23T07:47:17.284Z,11.11
2017-04-23T07:49:29.546Z,11.45
2017-04-23T07:51:41.971Z,11.81
2017-04-23T07:53:49.369Z,11.85
2017-04-23T07:56:01.691Z,11.86
2017-04-23T07:58:14.407Z,12.22
2017-04-23T08:00:27.029Z,12.57
2017-04-23T08:02:37.633Z,12.85
2017-04-23T08:04:49.908Z,13.57
2017-04-23T08:07:02.213Z,14.27
2017-04-23T08:09:14.529Z,14.84
2017-04-23T08:11:27.441Z,15.19
2017-04-23T08:13:58.357Z,15.51
2017-04-23T08:16:18.108Z,15.76
2017-04-23T08:18:33.829Z,16.06
2017-04-23T08:20:44.369Z,16.3
2017-04-23T08:23:00.009Z,16.78
2017-04-23T08:25:14.466Z,17.01
2017-04-23T08:27:33.662Z,16.43
2017-04-23T08:29:52.551Z,16.34
2017-04-23T08:32:08.098Z,16.23
2017-04-23T08:34:28.035Z,16.72
2017-04-23T08:36:45.126Z,16.74
2017-04-23T08:39:02.538Z,17.16
2017-04-23T08:41:18.166Z,17.33
2017-04-23T08:43:36.559Z,16.47
2017-04-23T08:45:55.318Z,15.03
2017-04-23T08:48:23.841Z,13.7
2017-04-23T08:50:45.008Z,12.8
2017-04-23T08:53:07.507Z,12.15
2017-04-23T08:55:37.523Z,11.72
2017-04-23T08:58:25.447Z,11.89
2017-04-23T09:01:09.843Z,12.34
2017-04-23T09:04:00.296Z,12.95
2017-04-23T09:06:48.898Z,13.35
2017-04-23T09:09:36.886Z,13.4
2017-04-23T09:12:14.530Z,13.45
2017-04-23T09:15:05.381Z,13.76
2017-04-23T09:17:58.488Z,14.47
2017-04-23T09:20:48.124Z,15.7
2017-04-23T09:23:39.939Z,16.77
2017-04-23T09:26:27.801Z,16.52
2017-04-23T09:29:19.155Z,16.85
2017-04-23T09:32:05.834Z,16.69
2017-04-23T09:34:48.635Z,16.36
2017-04-23T09:37:36.839Z,15.64
2017-04-23T09:40:24.183Z,14.35
2017-04-23T09:43:13.610Z,13.58
2017-04-23T09:46:03.798Z,13.51
2017-04-23T09:48:50.786Z,13.41
2017-04-23T09:51:42.877Z,14.07
2017-04-23T09:54:32.019Z,17.37
2017-04-23T09:57:24.182Z,17.04
2017-04-23T10:00:14.387Z,15.95
2017-04-23T10:03:03.851Z,15.01
2017-04-23T10:05:52.811Z,14.34
2017-04-23T10:08:45.156Z,13.39
2017-04-23T10:11:36.940Z,12.78
2017-04-23T10:14:34.295Z,12.54
2017-04-23T10:17:21.937Z,13.5
2017-04-23T10:20:11.531Z,15.72
2017-04-23T10:22:57.521Z,21.36
2017-04-23T10:25:49.745Z,20.74
2017-04-23T10:28:36.958Z,20.43
2017-04-23T10:31:23.425Z,21.92
2017-04-23T10:34:10.845Z,22.95
2017-04-23T10:37:04.859Z,29.18
2017-04-23T10:39:55.522Z,31.64
2017-04-23T10:42:48.779Z,28.29
2017-04-23T10:45:40.068Z,28.42
2017-04-23T10:48:21.879Z,27.67
2017-04-23T10:50:48.979Z,27.54
2017-04-23T10:53:27.494Z,27.87
2017-04-23T10:56:00.978Z,32.22
2017-04-23T10:58:29.719Z,33.88
2017-04-23T11:00:57.093Z,32.5
2017-04-23T11:03:25.788Z,26.32
2017-04-23T11:05:53.220Z,23.26
2017-04-23T11:08:25.170Z,21.64
2017-04-23T11:10:57.058Z,20.13
2017-04-23T11:13:32.033Z,18.81
2017-04-23T11:16:05.908Z,17.44
2017-04-23T11:18:36.299Z,16.64
2017-04-23T11:21:12.413Z,16.14
2017-04-23T11:23:37.984Z,15.8
2017-04-23T11:25:57.974Z,16.32
2017-04-23T11:28:20.185Z,17.95
2017-04-23T11:30:41.923Z,23.81
2017-04-23T11:32:58.495Z,34.26
2017-04-23T11:35:11.125Z,30.1
2017-04-23T11:37:22.614Z,27.88
2017-04-23T11:39:45.418Z,24.5
2017-04-23T11:41:52.435Z,21.99
2017-04-23T11:44:14.797Z,20.19
2017-04-23T11:46:32.295Z,19.35
2017-04-23T11:48:44.956Z,20.39
2017-04-23T11:51:01.902Z,26.82
2017-04-23T11:53:27.044Z,33.49
2017-04-23T11:56:02.720Z,36.21
2017-04-23T11:58:39.664Z,32.95
2017-04-23T12:01:18.157Z,39.92
2017-04-23T12:03:54.297Z,42.12
2017-04-23T12:06:33.643Z,44.03
2017-04-23T12:09:07.064Z,39.77
2017-04-23T12:11:42.758Z,33.79
2017-04-23T12:14:21.466Z,29.52
2017-04-23T12:16:56.028Z,25.56
2017-04-23T12:19:32.673Z,23.08
2017-04-23T12:22:10.733Z,26.37
2017-04-23T12:24:48.436Z,24.37
2017-04-23T12:27:26.709Z,31.27
2017-04-23T12:29:46.957Z,38.61
2017-04-23T12:32:14.319Z,41.95
2017-04-23T12:34:16.752Z,43.05
2017-04-23T12:36:04.260Z,43.92
2017-04-23T12:37:52.233Z,44.76
2017-04-23T12:39:34.675Z,45.81
2017-04-23T12:41:17.216Z,46.44
2017-04-23T12:43:09.717Z,47.12
2017-04-23T12:45:02.031Z,48.39
2017-04-23T12:46:58.691Z,45.23
2017-04-23T12:49:16.258Z,40.64
2017-04-23T12:51:06.543Z,35.84
2017-04-23T12:53:00.942Z,32.51
2017-04-23T12:55:13.250Z,30.14
2017-04-23T12:57:16.971Z,27.53
2017-04-23T12:59:11.703Z,26.54
2017-04-23T13:01:20.791Z,27
2017-04-23T13:03:21.924Z,33.66
2017-04-23T13:05:27.930Z,30.09
2017-04-23T13:07:28.357Z,34.05
2017-04-23T13:09:22.765Z,38.12
2017-04-23T13:11:23.147Z,36.01
2017-04-23T13:13:32.600Z,30.33
2017-04-23T13:15:22.962Z,27.92
2017-04-23T13:17:27.477Z,26.32
2017-04-23T13:19:41.658Z,26.19
2017-04-23T13:21:45.063Z,25
2017-04-23T13:23:34.047Z,24.03
2017-04-23T13:25:42.805Z,30.66
2017-04-23T13:27:38.467Z,31.22
2017-04-23T13:29:51.991Z,31.99
2017-04-23T13:31:46.187Z,32.36
2017-04-23T13:33:41.903Z,30.01
2017-04-23T13:35:47.225Z,28.01
2017-04-23T13:37:58.465Z,26.81
2017-04-23T13:40:02.985Z,30.23
2017-04-23T13:42:13.329Z,36.29
2017-04-23T13:44:07.206Z,39.02
2017-04-23T13:46:03.129Z,41.04
2017-04-23T13:47:57.732Z,42.44
2017-04-23T13:49:59.786Z,42.68
2017-04-23T13:52:00.427Z,43.39
2017-04-23T13:54:01.677Z,43.58
2017-04-23T13:55:56.602Z,40.46
2017-04-23T13:57:55.015Z,40.49
2017-04-23T13:59:58.061Z,43.08
2017-04-23T14:02:03.984Z,43.91
2017-04-23T14:03:48.511Z,42.89
2017-04-23T14:05:42.078Z,42.46
2017-04-23T14:07:53.133Z,43.64
2017-04-23T14:09:50.506Z,44.98
2017-04-23T14:11:31.413Z,45.49
2017-04-23T14:13:18.605Z,46.08
2017-04-23T14:15:10.111Z,46.79
2017-04-23T14:16:51.152Z,47.2
2017-04-23T14:18:30.896Z,45.83
2017-04-23T14:20:17.227Z,42.96
2017-04-23T14:21:56.094Z,43.04
2017-04-23T14:23:54.299Z,40.47
2017-04-23T14:25:47.951Z,40.49
2017-04-23T14:27:45.877Z,43.14
2017-04-23T14:29:39.100Z,44.72
2017-04-23T14:31:33.622Z,39.97
2017-04-23T14:33:26.070Z,35.88
2017-04-23T14:35:13.448Z,33.4
2017-04-23T14:36:50.936Z,31.13
2017-04-23T14:38:48.351Z,29
2017-04-23T14:40:35.763Z,27.39
2017-04-23T14:42:28.156Z,26.7
2017-04-23T14:44:25.659Z,30.3
2017-04-23T14:46:18.684Z,35.27
2017-04-23T14:48:16.123Z,39.42
2017-04-23T14:50:28.527Z,42.12
2017-04-23T14:52:32.090Z,43.45
2017-04-23T14:54:34.679Z,44.21
2017-04-23T14:56:47.347Z,38.45
2017-04-23T14:58:45.763Z,35.07
2017-04-23T15:00:53.113Z,38.64
2017-04-23T15:03:00.561Z,33.1
2017-04-23T15:05:14.124Z,29.27
2017-04-23T15:07:54.564Z,34.64
2017-04-23T15:10:41.151Z,37.6
2017-04-23T15:12:56.990Z,38.19
2017-04-23T15:14:59.942Z,37.35
2017-04-23T15:17:07.228Z,36.91
2017-04-23T15:19:14.679Z,32.83
2017-04-23T15:21:24.006Z,34.97
2017-04-23T15:23:26.523Z,36.87
2017-04-23T15:25:34.122Z,35.34
2017-04-23T15:27:41.494Z,35.88
2017-04-23T15:29:54.592Z,36.84
2017-04-23T15:32:07.216Z,36.8
2017-04-23T15:34:14.607Z,35.18
2017-04-23T15:36:21.942Z,31.62
2017-04-23T15:38:29.246Z,27.89
2017-04-23T15:40:36.595Z,26.03
2017-04-23T15:42:43.915Z,28.03
2017-04-23T15:44:51.308Z,30.58
2017-04-23T15:47:03.904Z,33.46
2017-04-23T15:49:11.236Z,34.95
2017-04-23T15:51:18.585Z,35.06
2017-04-23T15:53:25.966Z,33.84
2017-04-23T15:55:33.321Z,32.66
2017-04-23T15:57:40.921Z,31.7
2017-04-23T15:59:53.143Z,30.06
2017-04-23T16:02:05.490Z,28.5
2017-04-23T16:04:18.185Z,27.33
2017-04-23T16:06:31.025Z,26.44
2017-04-23T16:08:43.378Z,25.74
2017-04-23T16:10:55.630Z,24.45
2017-04-23T16:13:08.424Z,23.11
2017-04-23T16:15:20.754Z,21.04
2017-04-23T16:17:23.214Z,20.04
2017-04-23T16:19:35.681Z,19.91
2017-04-23T16:21:47.919Z,19.28
2017-04-23T16:24:00.771Z,18.59
2017-04-23T16:26:13.069Z,18.64
2017-04-23T16:28:25.577Z,18.66
2017-04-23T16:30:37.878Z,18.79
2017-04-23T16:32:50.226Z,18.65
2017-04-23T16:35:02.509Z,18.21
2017-04-23T16:37:14.921Z,17.75
2017-04-23T16:39:27.877Z,17.25
2017-04-23T16:41:40.210Z,16.69
2017-04-23T16:43:52.602Z,16.25
2017-04-23T16:46:04.962Z,15.81
2017-04-23T16:48:18.303Z,15.42
2017-04-23T16:50:30.828Z,15.08
2017-04-23T16:52:43.273Z,14.75
2017-04-23T16:54:55.730Z,14.44
2017-04-23T16:57:08.718Z,14.13
2017-04-23T16:59:21.329Z,13.86
2017-04-23T17:01:34.722Z,13.6
2017-04-23T17:03:43.152Z,13.37
2017-04-23T17:05:55.661Z,13.13
2017-04-23T17:08:07.958Z,12.89
2017-04-23T17:10:20.289Z,12.66
2017-04-23T17:12:33.373Z,12.45
2017-04-23T17:14:46.301Z,12.26
2017-04-23T17:16:58.612Z,12.08
2017-04-23T17:19:11.307Z,11.91
2017-04-23T17:21:18.740Z,11.75
2017-04-23T17:23:31.036Z,11.54
2017-04-23T17:25:43.423Z,11.34
2017-04-23T17:27:55.769Z,11.15
2017-04-23T17:30:08.109Z,10.97
2017-04-23T17:32:20.468Z,10.78
2017-04-23T17:34:32.715Z,10.59
2017-04-23T17:36:45.055Z,10.41
2017-04-23T17:38:57.319Z,10.25
2017-04-23T17:41:09.603Z,10.11
2017-04-23T17:43:21.913Z,9.95
2017-04-23T17:45:34.215Z,9.78
2017-04-23T17:47:49.775Z,9.61
2017-04-23T17:49:57.266Z,9.44
2017-04-23T17:52:04.616Z,9.27
2017-04-23T17:54:16.961Z,9.11
2017-04-23T17:56:29.176Z,8.97
2017-04-23T17:58:41.489Z,8.8
2017-04-23T18:00:48.800Z,8.64
2017-04-23T18:03:01.040Z,8.49
2017-04-23T18:05:08.285Z,8.36
2017-04-23T18:07:20.510Z,8.25
2017-04-23T18:09:32.877Z,8.12
2017-04-23T18:11:46.996Z,7.99
2017-04-23T18:14:00.055Z,7.86
2017-04-23T18:16:12.367Z,7.73
2017-04-23T18:18:24.675Z,7.58
2017-04-23T18:20:37.273Z,7.45
2017-04-23T18:22:52.144Z,7.33
2017-04-23T18:25:04.554Z,7.23
2017-04-23T18:27:16.793Z,7.13
2017-04-23T18:29:24.047Z,7.01
2017-04-23T18:31:34.500Z,6.86
2017-04-23T18:33:46.904Z,6.74
2017-04-23T18:35:54.340Z,6.6
2017-04-23T18:38:01.583Z,6.47
2017-04-23T18:40:13.940Z,6.36
2017-04-23T18:42:21.204Z,6.26
2017-04-23T18:44:33.522Z,6.16
2017-04-23T18:46:41.053Z,6.06
2017-04-23T18:48:53.412Z,5.96
2017-04-23T18:51:05.700Z,5.87
2017-04-23T18:53:17.991Z,5.76
2017-04-23T18:55:30.348Z,5.68
2017-04-23T18:57:43.269Z,5.58
2017-04-23T18:59:55.685Z,5.5
2017-04-23T19:02:07.979Z,5.41
2017-04-23T19:04:20.356Z,5.31
2017-04-23T19:06:32.663Z,5.23
2017-04-23T19:08:45.101Z,5.15
2017-04-23T19:10:57.524Z,5.06
2017-04-23T19:13:10.414Z,4.98
2017-04-23T19:15:22.904Z,4.89
2017-04-23T19:17:35.278Z,4.8
2017-04-23T19:19:47.865Z,4.72
2017-04-23T19:22:00.832Z,4.69
2017-04-23T19:24:13.182Z,4.65
2017-04-23T19:26:26.075Z,4.59
2017-04-23T19:28:38.668Z,4.53
2017-04-23T19:30:51.889Z,4.46
2017-04-23T19:33:05.118Z,4.36
2017-04-23T19:35:17.481Z,4.24
2017-04-23T19:37:29.876Z,4.12
2017-04-23T19:39:42.401Z,4.07
2017-04-23T19:41:54.852Z,4.02
2017-04-23T19:44:07.328Z,3.94
2017-04-23T19:46:19.992Z,3.87
2017-04-23T19:48:33.018Z,3.82
2017-04-23T19:50:45.973Z,3.78
2017-04-23T19:52:59.078Z,3.74
2017-04-23T19:55:12.696Z,3.69
2017-04-23T19:57:26.351Z,3.63
2017-04-23T19:59:38.836Z,3.55
2017-04-23T20:01:51.328Z,3.47
2017-04-23T20:04:04.216Z,3.39
2017-04-23T20:06:16.628Z,3.36
2017-04-23T20:08:30.248Z,3.33
2017-04-23T20:10:37.651Z,3.28
2017-04-23T20:12:49.883Z,3.24
2017-04-23T20:15:02.280Z,3.2
2017-04-23T20:17:14.560Z,3.17
2017-04-23T20:19:26.878Z,3.12
2017-04-23T20:21:39.368Z,3.06
2017-04-23T20:23:51.727Z,2.99
2017-04-23T20:25:59.207Z,2.93
2017-04-23T20:28:11.534Z,2.88
2017-04-23T20:30:24.154Z,2.86
2017-04-23T20:32:38.342Z,2.83
2017-04-23T20:34:50.561Z,2.77
2017-04-23T20:37:02.918Z,2.71
2017-04-23T20:39:15.411Z,2.65
2017-04-23T20:41:23.187Z,2.58
2017-04-23T20:43:35.719Z,2.52
2017-04-23T20:45:48.011Z,2.53
2017-04-23T20:47:55.306Z,2.52
2017-04-23T20:50:07.720Z,2.47
2017-04-23T20:52:19.958Z,2.41
2017-04-23T20:54:32.366Z,2.36
2017-04-23T20:56:44.765Z,2.31
2017-04-23T20:58:57.036Z,2.27
2017-04-23T21:01:09.216Z,2.22
2017-04-23T21:03:21.449Z,2.17
2017-04-23T21:05:33.714Z,2.11
2017-04-23T21:07:41.072Z,2.07
2017-04-23T21:09:53.386Z,2.06
2017-04-23T21:12:05.663Z,2.03
2017-04-23T21:14:13.062Z,1.99
2017-04-23T21:16:27.365Z,1.97
2017-04-23T21:18:41.368Z,1.96
2017-04-23T21:20:53.713Z,1.98
2017-04-23T21:23:05.927Z,1.99
2017-04-23T21:25:18.232Z,1.98
2017-04-23T21:27:25.719Z,1.94
2017-04-23T21:29:37.921Z,1.89
2017-04-23T21:31:50.304Z,1.86
2017-04-23T21:34:02.587Z,1.81
2017-04-23T21:36:14.864Z,1.77
2017-04-23T21:38:27.478Z,1.81
2017-04-23T21:40:40.274Z,1.86
2017-04-23T21:42:52.783Z,1.83
2017-04-23T21:45:00.327Z,1.8
2017-04-23T21:47:13.256Z,1.76
2017-04-23T21:49:26.132Z,1.71
2017-04-23T21:51:38.632Z,1.68
2017-04-23T21:53:51.055Z,1.66
2017-04-23T21:56:03.596Z,1.63
2017-04-23T21:58:15.973Z,1.59
2017-04-23T22:00:23.529Z,1.55
2017-04-23T22:02:36.192Z,1.5
2017-04-23T22:04:48.836Z,1.46
2017-04-23T22:07:01.484Z,1.46
2017-04-23T22:09:14.136Z,1.53
2017-04-23T22:11:26.772Z,1.56
2017-04-23T22:13:39.253Z,1.54
2017-04-23T22:15:51.751Z,1.49
2017-04-23T22:18:04.276Z,1.46
2017-04-23T22:20:11.945Z,1.48
2017-04-23T22:22:24.951Z,1.45
2017-04-23T22:24:37.873Z,1.48
2017-04-23T22:26:45.376Z,1.56
2017-04-23T22:28:52.671Z,1.54
2017-04-23T22:31:04.950Z,1.49
2017-04-23T22:33:17.337Z,1.43
2017-04-23T22:35:31.294Z,1.37
2017-04-23T22:37:43.730Z,1.33
2017-04-23T22:39:55.903Z,1.3
2017-04-23T22:42:11.575Z,1.27
2017-04-23T22:44:23.963Z,1.26
2017-04-23T22:46:36.282Z,1.21
2017-04-23T22:48:48.606Z,1.18
2017-04-23T22:51:02.060Z,1.16
2017-04-23T22:53:14.359Z,1.22
2017-04-23T22:55:31.133Z,1.26
2017-04-23T22:57:43.606Z,1.24
2017-04-23T22:59:56.457Z,1.23
2017-04-23T23:02:09.645Z,1.2
2017-04-23T23:04:21.915Z,1.19
2017-04-23T23:06:34.210Z,1.2
2017-04-23T23:08:46.512Z,1.16
2017-04-23T23:10:58.859Z,1.11
2017-04-23T23:13:11.199Z,1.06
2017-04-23T23:15:23.458Z,1.04
2017-04-23T23:17:35.697Z,1.01
2017-04-23T23:19:47.978Z,0.98
2017-04-23T23:22:00.206Z,0.95
2017-04-23T23:24:12.420Z,0.93
2017-04-23T23:26:19.730Z,1
2017-04-23T23:28:32.109Z,1.11
2017-04-23T23:30:44.473Z,1.24
2017-04-23T23:32:57.282Z,1.33
2017-04-23T23:35:09.483Z,1.34
2017-04-23T23:37:21.726Z,1.31
2017-04-23T23:39:40.883Z,1.29
2017-04-23T23:41:48.080Z,1.21
2017-04-23T23:44:03.555Z,1.13
2017-04-23T23:46:15.817Z,1.14
2017-04-23T23:48:31.091Z,1.12
2017-04-23T23:50:44.662Z,1.1
2017-04-23T23:52:57.796Z,1.04
2017-04-23T23:55:10.073Z,0.98
2017-04-23T23:57:12.372Z,0.95
2017-04-23T23:59:30.836Z,0.89
